Time;durP1;ratioP1;P1;durP2;ratioP2;P2;SDS_P1;SDS_P2;PMS_P1;PMS_P2;Temp;Humidity;BMP_temperature;BMP_pressure;BME280_temperature;BME280_humidity;BME280_pressure;Samples;Min_cycle;Max_cycle;Signal;HPM_P1;HPM_P2
2022/06/27 00:00:17;;;;;;;2.58;1.70;;;17.50;99.90;;;;;;6238445;23;20023;-80
2022/06/27 00:02:43;;;;;;;2.65;1.45;;;17.50;99.90;;;;;;6211737;23;20016;-79
2022/06/27 00:05:11;;;;;;;6.28;1.88;;;17.50;99.90;;;;;;6187091;23;20027;-80
2022/06/27 00:07:37;;;;;;;2.80;1.85;;;17.50;99.90;;;;;;6212957;23;20024;-80
2022/06/27 00:10:04;;;;;;;5.28;1.77;;;17.50;99.90;;;;;;6211886;23;20018;-83
2022/06/27 00:12:31;;;;;;;2.13;1.60;;;17.50;99.90;;;;;;6213265;23;20016;-84
2022/06/27 00:14:57;;;;;;;2.13;1.98;;;17.40;99.90;;;;;;6186367;23;20043;-83
2022/06/27 00:17:23;;;;;;;3.42;1.90;;;17.40;99.90;;;;;;6238331;23;20024;-82
2022/06/27 00:19:49;;;;;;;3.70;1.60;;;17.40;99.90;;;;;;6211352;23;20020;-81
2022/06/27 00:22:14;;;;;;;3.20;1.85;;;17.40;99.90;;;;;;6238765;23;20012;-79
2022/06/27 00:24:40;;;;;;;3.50;1.55;;;17.40;99.90;;;;;;6212470;23;20125;-79
2022/06/27 00:27:06;;;;;;;3.28;2.05;;;17.40;99.90;;;;;;6211747;23;20023;-81
2022/06/27 00:29:32;;;;;;;4.18;2.50;;;17.30;99.90;;;;;;6213015;23;20415;-80
2022/06/27 00:31:57;;;;;;;4.68;2.50;;;17.30;99.90;;;;;;6211204;23;20020;-80
2022/06/27 00:34:23;;;;;;;2.97;1.95;;;17.30;99.90;;;;;;6238118;23;20016;-80
2022/06/27 00:36:49;;;;;;;3.65;2.17;;;17.20;99.90;;;;;;6236190;23;20047;-80
2022/06/27 00:39:15;;;;;;;3.83;2.45;;;17.20;99.90;;;;;;6238231;23;20408;-81
2022/06/27 00:41:40;;;;;;;5.47;2.15;;;17.20;99.90;;;;;;6211774;23;20020;-80
2022/06/27 00:44:06;;;;;;;3.00;1.88;;;17.10;99.90;;;;;;6212257;23;20376;-80
2022/06/27 00:46:32;;;;;;;3.53;2.38;;;17.10;99.90;;;;;;6212957;23;20016;-80
2022/06/27 00:48:58;;;;;;;4.20;2.13;;;17.10;99.90;;;;;;6211583;23;20016;-80
2022/06/27 00:51:27;;;;;;;3.53;2.55;;;17.10;99.90;;;;;;6212554;23;20464;-81
2022/06/27 00:53:54;;;;;;;2.55;2.33;;;17.10;99.90;;;;;;6210911;23;20026;-81
2022/06/27 00:56:20;;;;;;;2.95;2.33;;;17.10;99.90;;;;;;6212791;23;20389;-81
2022/06/27 00:58:46;;;;;;;4.85;2.80;;;17.10;99.90;;;;;;6186442;23;20110;-81
2022/06/27 01:01:12;;;;;;;4.13;2.58;;;17.00;99.90;;;;;;6236850;23;20016;-82
2022/06/27 01:03:38;;;;;;;4.65;2.60;;;17.10;99.90;;;;;;6237644;23;20354;-81
2022/06/27 01:06:04;;;;;;;2.97;2.33;;;17.10;99.90;;;;;;6236681;23;20091;-82
2022/06/27 01:08:30;;;;;;;3.90;2.40;;;17.10;99.90;;;;;;6238261;23;20020;-82
2022/06/27 01:10:56;;;;;;;4.95;2.40;;;17.00;99.90;;;;;;6210960;23;20107;-82
2022/06/27 01:13:22;;;;;;;3.28;2.25;;;17.00;99.90;;;;;;6212645;23;20478;-81
2022/06/27 01:15:48;;;;;;;3.03;2.28;;;17.00;99.90;;;;;;6236459;23;20020;-82
2022/06/27 01:18:15;;;;;;;2.85;2.10;;;17.00;99.90;;;;;;6212535;23;20028;-81
2022/06/27 01:20:42;;;;;;;2.47;2.00;;;17.00;99.90;;;;;;6237249;23;20328;-82
2022/06/27 01:23:08;;;;;;;2.17;1.98;;;17.00;99.90;;;;;;6237112;23;20027;-81
2022/06/27 01:25:37;;;;;;;2.92;2.33;;;17.00;99.90;;;;;;6238107;23;20342;-82
2022/06/27 01:28:05;;;;;;;4.70;2.30;;;17.00;99.90;;;;;;6236572;23;20023;-81
2022/06/27 01:30:31;;;;;;;2.60;2.15;;;16.90;99.90;;;;;;6238134;23;20008;-81
2022/06/27 01:32:56;;;;;;;3.42;2.40;;;16.90;99.90;;;;;;6210496;23;20543;-81
2022/06/27 01:35:22;;;;;;;4.78;2.47;;;16.90;99.90;;;;;;6238011;23;20470;-81
2022/06/27 01:37:48;;;;;;;5.30;2.72;;;16.90;99.90;;;;;;6211542;23;20024;-80
2022/06/27 01:40:15;;;;;;;3.53;2.45;;;16.90;99.90;;;;;;6212026;23;20398;-81
2022/06/27 01:42:42;;;;;;;2.15;2.05;;;16.90;99.90;;;;;;6211966;23;20027;-80
2022/06/27 01:45:09;;;;;;;4.72;2.50;;;16.80;99.90;;;;;;6210934;23;20426;-79
2022/06/27 01:47:35;;;;;;;4.50;2.63;;;16.80;99.90;;;;;;6237843;23;20016;-81
2022/06/27 01:50:00;;;;;;;3.35;2.97;;;16.80;99.90;;;;;;6210828;23;20027;-81
2022/06/27 01:52:28;;;;;;;2.60;2.40;;;16.80;99.90;;;;;;6212853;23;20034;-82
2022/06/27 01:54:55;;;;;;;4.50;2.70;;;16.80;99.90;;;;;;6236461;23;20409;-81
2022/06/27 01:57:22;;;;;;;3.22;2.50;;;16.80;99.90;;;;;;6212222;23;20362;-82
2022/06/27 02:00:14;;;;;;;3.58;2.60;;;16.70;99.90;;;;;;6237304;23;20024;-82
2022/06/27 02:06:51;;;;;;;;;;;16.70;99.90;;;;;;6239485;23;20442;-85
2022/06/27 02:09:57;;;;;;;4.00;2.28;;;16.70;99.90;;;;;;6237152;23;19947;-84
2022/06/27 02:12:42;;;;;;;2.50;2.30;;;16.70;99.90;;;;;;6211434;23;20107;-85
2022/06/27 02:16:25;;;;;;;3.78;2.40;;;16.70;99.90;;;;;;6239022;23;20370;-85
2022/06/27 02:19:51;;;;;;;7.03;2.30;;;16.70;99.90;;;;;;6240578;23;20023;-86
2022/06/27 03:03:26;;;;;;;7.20;3.05;;;16.60;99.90;;;;;;6091330;23;20440;-86
2022/06/27 03:06:11;;;;;;;5.22;2.10;;;16.60;99.90;;;;;;6065319;23;20117;-86
2022/06/27 03:08:56;;;;;;;2.55;2.38;;;16.60;99.90;;;;;;6067355;23;20020;-85
2022/06/27 03:11:24;;;;;;;4.80;2.58;;;16.60;99.90;;;;;;6067835;23;20021;-84
2022/06/27 03:13:52;;;;;;;6.88;2.60;;;16.60;99.90;;;;;;6067750;23;20018;-84
2022/06/27 03:16:19;;;;;;;8.95;2.67;;;16.70;99.90;;;;;;6066719;23;20022;-83
2022/06/27 03:18:46;;;;;;;4.78;2.70;;;16.60;99.90;;;;;;6067511;23;20047;-82
2022/06/27 03:21:13;;;;;;;4.20;2.67;;;16.60;99.90;;;;;;6090762;23;20022;-79
2022/06/27 03:23:40;;;;;;;3.13;2.80;;;16.60;99.90;;;;;;6091729;23;20502;-80
2022/06/27 03:26:06;;;;;;;6.65;3.25;;;16.60;99.90;;;;;;6090756;23;20093;-79
2022/06/27 03:28:31;;;;;;;2.83;2.60;;;16.60;99.90;;;;;;6147727;23;20435;-79
2022/06/27 03:30:57;;;;;;;3.83;2.20;;;16.60;99.90;;;;;;6181382;23;20012;-79
2022/06/27 03:33:23;;;;;;;5.20;2.65;;;16.60;99.90;;;;;;6180868;23;20116;-79
2022/06/27 03:35:49;;;;;;;4.68;2.83;;;16.60;99.90;;;;;;6181115;23;20051;-81
2022/06/27 03:38:15;;;;;;;2.70;2.50;;;16.50;99.90;;;;;;6180705;23;20107;-79
2022/06/27 03:40:41;;;;;;;2.92;2.70;;;16.50;99.90;;;;;;6156926;23;20431;-80
2022/06/27 03:43:07;;;;;;;3.80;2.65;;;16.50;99.90;;;;;;6180968;23;20016;-80
2022/06/27 03:45:33;;;;;;;2.38;2.28;;;16.50;99.90;;;;;;6157067;23;20470;-80
2022/06/27 03:48:01;;;;;;;3.70;2.38;;;16.50;99.90;;;;;;6181144;23;20013;-79
2022/06/27 03:50:28;;;;;;;3.97;2.70;;;16.50;99.90;;;;;;6180609;23;20012;-79
2022/06/27 03:52:54;;;;;;;2.85;2.50;;;16.40;99.90;;;;;;6180855;23;20017;-81
2022/06/27 03:55:21;;;;;;;3.00;2.42;;;16.50;99.90;;;;;;6203189;23;20024;-79
2022/06/27 03:57:49;;;;;;;4.40;2.10;;;16.40;99.90;;;;;;6211140;23;20369;-81
2022/06/27 04:00:16;;;;;;;2.25;2.00;;;16.50;99.90;;;;;;6210635;23;20024;-81
2022/06/27 04:02:42;;;;;;;4.72;1.95;;;16.40;99.90;;;;;;6162089;23;20019;-80
2022/06/27 04:05:08;;;;;;;2.13;2.03;;;16.40;99.90;;;;;;6185354;23;20135;-81
2022/06/27 04:07:36;;;;;;;2.55;2.08;;;16.40;99.90;;;;;;6237013;23;20016;-80
2022/06/27 04:10:02;;;;;;;4.15;2.10;;;16.40;99.90;;;;;;6211058;23;20016;-79
2022/06/27 04:12:28;;;;;;;4.07;1.90;;;16.40;99.90;;;;;;6160963;23;20933;-82
2022/06/27 04:14:54;;;;;;;2.70;1.90;;;16.40;99.90;;;;;;6160249;23;20047;-81
2022/06/27 04:17:19;;;;;;;4.10;2.08;;;16.40;99.90;;;;;;6185688;23;20078;-79
2022/06/27 04:19:45;;;;;;;2.38;2.00;;;16.40;99.90;;;;;;6210714;23;20039;-80
2022/06/27 04:22:11;;;;;;;2.03;1.80;;;16.40;99.90;;;;;;6210960;23;20016;-81
2022/06/27 04:24:37;;;;;;;3.05;1.90;;;16.40;99.90;;;;;;6211125;23;20012;-79
2022/06/27 04:27:04;;;;;;;1.98;1.77;;;16.40;99.90;;;;;;6161356;23;20016;-78
2022/06/27 04:29:30;;;;;;;5.78;3.03;;;16.40;99.90;;;;;;6210310;23;20012;-78
2022/06/27 04:31:57;;;;;;;5.13;1.88;;;16.40;99.90;;;;;;6210424;23;20042;-78
2022/06/27 04:34:23;;;;;;;3.08;1.70;;;16.40;99.90;;;;;;6210145;23;20046;-78
2022/06/27 04:36:50;;;;;;;3.38;1.88;;;16.40;99.90;;;;;;6210779;23;20019;-78
2022/06/27 04:39:20;;;;;;;6.72;1.85;;;16.40;99.90;;;;;;6210029;23;20028;-79
2022/06/27 04:41:49;;;;;;;7.90;1.90;;;16.40;99.90;;;;;;6187196;23;20020;-80
2022/06/27 04:44:14;;;;;;;2.10;1.67;;;16.40;99.90;;;;;;6210070;23;20043;-80
2022/06/27 04:46:41;;;;;;;2.03;1.55;;;16.40;99.90;;;;;;6210979;23;20020;-79
2022/06/27 04:49:08;;;;;;;4.07;1.50;;;16.40;99.90;;;;;;6210805;23;20012;-79
2022/06/27 04:51:35;;;;;;;3.20;1.30;;;16.40;99.90;;;;;;6210654;23;20054;-78
2022/06/27 04:54:01;;;;;;;1.73;1.10;;;16.30;99.90;;;;;;6185719;23;20023;-78
2022/06/27 04:56:29;;;;;;;1.92;1.27;;;16.30;99.90;;;;;;6210279;23;20035;-79
2022/06/27 04:58:55;;;;;;;4.50;1.08;;;16.30;99.90;;;;;;6210849;23;20031;-80
2022/06/27 05:01:21;;;;;;;3.08;1.75;;;16.40;99.90;;;;;;6184696;23;20016;-80
2022/06/27 05:03:47;;;;;;;1.10;1.10;;;16.40;99.90;;;;;;6210731;23;20023;-80
2022/06/27 05:06:13;;;;;;;1.15;1.13;;;16.40;99.90;;;;;;6185472;23;20052;-79
2022/06/27 05:08:39;;;;;;;1.13;1.02;;;16.30;99.90;;;;;;6210409;23;20066;-80
2022/06/27 05:11:05;;;;;;;1.80;1.40;;;16.40;99.90;;;;;;6210706;23;20020;-78
2022/06/27 05:13:31;;;;;;;2.83;1.70;;;16.40;99.90;;;;;;6185551;23;20016;-80
2022/06/27 05:15:58;;;;;;;1.60;1.50;;;16.30;99.90;;;;;;6210730;23;20057;-79
2022/06/27 05:18:24;;;;;;;1.42;1.42;;;16.40;99.90;;;;;;6185031;23;20043;-80
2022/06/27 05:20:50;;;;;;;1.67;1.35;;;16.40;99.90;;;;;;6161170;23;20024;-80
2022/06/27 05:23:16;;;;;;;3.38;1.90;;;16.40;99.90;;;;;;6185341;23;20027;-82
2022/06/27 05:25:41;;;;;;;2.65;2.10;;;16.30;99.90;;;;;;6185589;23;20563;-82
2022/06/27 05:28:08;;;;;;;2.35;2.15;;;16.40;99.90;;;;;;6210325;23;20493;-81
2022/06/27 05:30:34;;;;;;;5.53;3.17;;;16.40;99.90;;;;;;6184978;23;20420;-81
2022/06/27 05:33:00;;;;;;;6.00;3.17;;;16.50;99.90;;;;;;6185758;23;20016;-80
2022/06/27 05:35:26;;;;;;;3.97;2.88;;;16.50;99.90;;;;;;6209473;23;20020;-80
2022/06/27 05:37:54;;;;;;;4.40;2.78;;;16.60;99.90;;;;;;6185788;23;20011;-80
2022/06/27 05:40:20;;;;;;;3.15;2.83;;;16.70;99.90;;;;;;6184883;23;20089;-81
2022/06/27 05:42:48;;;;;;;2.58;2.38;;;16.70;99.90;;;;;;6183266;23;20019;-79
2022/06/27 05:45:15;;;;;;;7.05;2.85;;;16.70;99.90;;;;;;6184866;23;20020;-82
2022/06/27 05:47:42;;;;;;;2.33;1.80;;;16.60;99.90;;;;;;6211180;23;20050;-80
2022/06/27 05:50:08;;;;;;;1.88;1.77;;;16.60;99.90;;;;;;6186804;23;20035;-81
2022/06/27 05:52:35;;;;;;;4.35;1.63;;;16.60;99.90;;;;;;6186620;23;20103;-79
2022/06/27 05:55:02;;;;;;;1.80;1.70;;;16.60;99.90;;;;;;6163324;23;20016;-80
2022/06/27 05:57:28;;;;;;;1.98;1.80;;;16.50;99.90;;;;;;6187295;23;20020;-82
2022/06/27 05:59:55;;;;;;;1.85;1.60;;;16.50;99.90;;;;;;6212652;23;20054;-81
2022/06/27 06:02:25;;;;;;;1.90;1.58;;;16.60;99.90;;;;;;6186951;23;20016;-81
2022/06/27 06:04:52;;;;;;;2.35;1.40;;;16.60;99.90;;;;;;6212588;23;20119;-81
2022/06/27 06:07:18;;;;;;;1.50;1.40;;;16.60;99.90;;;;;;6186685;23;20469;-81
2022/06/27 06:09:44;;;;;;;1.75;1.48;;;16.60;99.90;;;;;;6187258;23;20485;-80
2022/06/27 06:12:11;;;;;;;3.03;1.63;;;16.80;99.90;;;;;;6187568;23;20012;-82
2022/06/27 06:14:37;;;;;;;2.70;1.98;;;16.80;99.90;;;;;;6186962;23;20020;-80
2022/06/27 06:17:04;;;;;;;3.55;2.25;;;16.90;99.90;;;;;;6187728;23;20016;-81
2022/06/27 06:19:33;;;;;;;3.28;2.10;;;16.90;99.90;;;;;;6161779;23;20445;-80
2022/06/27 06:21:59;;;;;;;2.60;2.00;;;16.90;99.90;;;;;;6212242;23;20023;-80
2022/06/27 06:24:25;;;;;;;2.28;1.90;;;17.00;99.90;;;;;;6186617;23;20020;-81
2022/06/27 06:26:56;;;;;;;2.17;1.98;;;17.00;99.90;;;;;;6212226;23;20027;-81
2022/06/27 06:29:23;;;;;;;1.90;1.70;;;17.00;99.90;;;;;;6187656;23;20027;-80
2022/06/27 06:31:49;;;;;;;2.17;2.00;;;17.00;99.90;;;;;;6162115;23;20447;-81
2022/06/27 06:34:16;;;;;;;3.13;2.08;;;17.00;99.90;;;;;;6187730;23;20047;-80
2022/06/27 06:36:44;;;;;;;3.35;2.42;;;17.00;99.90;;;;;;6211914;23;20016;-81
2022/06/27 06:39:10;;;;;;;6.50;2.30;;;17.00;99.90;;;;;;6212145;23;20034;-80
2022/06/27 06:41:37;;;;;;;5.18;2.47;;;17.00;99.90;;;;;;6211404;23;20020;-80
2022/06/27 06:44:05;;;;;;;4.45;2.30;;;17.00;99.90;;;;;;6212063;23;20019;-80
2022/06/27 06:46:32;;;;;;;4.35;2.47;;;17.00;99.90;;;;;;6211199;23;20022;-81
2022/06/27 06:49:04;;;;;;;2.72;2.40;;;16.90;99.90;;;;;;6161921;23;20103;-80
2022/06/27 06:51:37;;;;;;;3.10;2.70;;;16.90;99.90;;;;;;6211580;23;20050;-80
2022/06/27 06:54:07;;;;;;;3.85;2.83;;;16.90;99.90;;;;;;6186530;23;20020;-80
2022/06/27 06:56:34;;;;;;;4.15;3.00;;;16.90;99.90;;;;;;6186450;23;20070;-79
2022/06/27 06:59:02;;;;;;;3.95;2.67;;;16.90;99.90;;;;;;6186460;23;20133;-80
2022/06/27 07:01:29;;;;;;;2.35;2.05;;;16.90;99.90;;;;;;6211040;23;20126;-80
2022/06/27 07:03:55;;;;;;;3.92;2.67;;;16.80;99.90;;;;;;6186943;23;20020;-80
2022/06/27 07:06:24;;;;;;;3.10;2.65;;;16.80;99.90;;;;;;6211282;23;20028;-80
2022/06/27 07:08:54;;;;;;;4.38;3.08;;;16.80;99.90;;;;;;6187117;23;20019;-80
2022/06/27 07:11:28;;;;;;;5.63;3.03;;;16.80;99.90;;;;;;6186576;23;20023;-79
2022/06/27 07:13:56;;;;;;;4.13;2.67;;;16.80;99.90;;;;;;6162845;23;20020;-79
2022/06/27 07:16:24;;;;;;;3.95;3.00;;;16.90;99.90;;;;;;6211761;23;20300;-79
2022/06/27 07:18:51;;;;;;;4.43;2.85;;;16.90;99.90;;;;;;6211522;23;20024;-80
2022/06/27 07:21:18;;;;;;;3.17;2.92;;;16.90;99.90;;;;;;6212166;23;20012;-79
2022/06/27 07:23:50;;;;;;;5.55;2.60;;;17.00;99.90;;;;;;6186302;23;20016;-79
2022/06/27 07:26:17;;;;;;;3.75;2.67;;;17.00;99.90;;;;;;6211573;23;20036;-79
2022/06/27 07:28:44;;;;;;;5.45;2.92;;;17.10;99.90;;;;;;6185714;23;20016;-79
2022/06/27 07:31:14;;;;;;;4.78;2.30;;;17.10;99.90;;;;;;6211406;23;20342;-79
2022/06/27 07:33:45;;;;;;;2.67;2.30;;;17.10;99.90;;;;;;6211005;23;20013;-79
2022/06/27 07:36:14;;;;;;;1.98;1.77;;;17.00;99.90;;;;;;6211423;23;20020;-79
2022/06/27 07:38:41;;;;;;;4.32;1.60;;;17.00;99.90;;;;;;6211343;23;20008;-79
2022/06/27 07:41:13;;;;;;;1.98;1.40;;;17.00;99.90;;;;;;6185401;23;20058;-79
2022/06/27 07:43:40;;;;;;;1.40;1.30;;;17.00;99.90;;;;;;6211325;23;20016;-79
2022/06/27 07:46:06;;;;;;;1.23;1.13;;;17.00;99.90;;;;;;6186671;23;20022;-79
2022/06/27 07:48:33;;;;;;;5.30;1.80;;;17.00;99.90;;;;;;6185414;23;20146;-79
2022/06/27 07:50:59;;;;;;;4.13;1.15;;;17.00;99.90;;;;;;6211164;23;20008;-79
2022/06/27 07:53:26;;;;;;;2.35;1.17;;;17.00;99.90;;;;;;6207497;23;20512;-79
2022/06/27 07:55:54;;;;;;;2.28;1.08;;;17.00;99.90;;;;;;6209325;23;20042;-79
2022/06/27 07:58:33;;;;;;;1.20;1.10;;;16.90;99.90;;;;;;6182635;23;20411;-78
2022/06/27 08:01:01;;;;;;;1.43;1.30;;;16.90;99.90;;;;;;6185276;23;20016;-78
2022/06/27 08:03:40;;;;;;;5.77;2.30;;;16.90;99.90;;;;;;6209545;23;20016;-79
2022/06/27 08:06:09;;;;;;;5.23;1.63;;;16.90;99.90;;;;;;6211508;23;20020;-78
2022/06/27 08:08:37;;;;;;;2.78;1.63;;;16.90;99.90;;;;;;6210081;23;20024;-79
2022/06/27 08:11:07;;;;;;;1.70;1.60;;;17.00;99.90;;;;;;6210389;23;20012;-79
2022/06/27 08:13:35;;;;;;;6.45;2.10;;;17.00;99.90;;;;;;6183959;23;20336;-78
2022/06/27 08:16:02;;;;;;;2.22;1.80;;;17.10;99.90;;;;;;6210525;23;20062;-78
2022/06/27 08:18:31;;;;;;;3.08;2.20;;;17.10;99.90;;;;;;6210062;23;20027;-78
2022/06/27 08:20:58;;;;;;;2.13;1.95;;;17.20;99.90;;;;;;6185520;23;20024;-79
2022/06/27 08:23:23;;;;;;;2.53;1.70;;;17.30;99.90;;;;;;6210544;23;20507;-79
2022/06/27 08:25:49;;;;;;;3.38;1.77;;;17.40;99.90;;;;;;6184529;23;20024;-79
2022/06/27 08:28:16;;;;;;;2.42;1.83;;;17.40;99.90;;;;;;6160648;23;20405;-78
2022/06/27 08:30:43;;;;;;;7.43;2.00;;;17.40;99.90;;;;;;6185347;23;20023;-80
2022/06/27 08:33:10;;;;;;;3.22;2.08;;;17.50;99.90;;;;;;6185336;23;20016;-79
2022/06/27 08:35:38;;;;;;;3.38;2.13;;;17.50;99.90;;;;;;6209834;23;20024;-79
2022/06/27 08:38:04;;;;;;;4.38;1.80;;;17.40;99.90;;;;;;6209838;23;20023;-79
2022/06/27 08:40:32;;;;;;;1.98;1.85;;;17.40;99.90;;;;;;6183446;23;20438;-79
2022/06/27 08:42:58;;;;;;;1.85;1.58;;;17.40;99.90;;;;;;6210296;23;20395;-81
2022/06/27 08:45:25;;;;;;;1.75;1.63;;;17.40;99.90;;;;;;6210236;23;20431;-79
2022/06/27 08:47:54;;;;;;;4.40;2.17;;;17.40;99.90;;;;;;6183812;23;20019;-79
2022/06/27 08:50:22;;;;;;;2.60;1.83;;;17.50;99.90;;;;;;6210128;23;20022;-79
2022/06/27 08:52:50;;;;;;;3.45;2.10;;;17.40;99.90;;;;;;6209985;23;20091;-78
2022/06/27 08:55:16;;;;;;;2.10;1.80;;;17.40;99.90;;;;;;6209376;23;20142;-79
2022/06/27 08:57:42;;;;;;;3.10;2.15;;;17.40;99.90;;;;;;6209657;23;20397;-78
2022/06/27 09:00:11;;;;;;;3.08;1.48;;;17.40;99.90;;;;;;6185286;23;20016;-78
2022/06/27 09:02:42;;;;;;;3.63;1.50;;;17.40;99.90;;;;;;6209353;23;20347;-78
2022/06/27 09:05:28;;;;;;;2.50;1.48;;;17.30;99.90;;;;;;6184785;23;20016;-78
2022/06/27 09:07:57;;;;;;;1.95;1.80;;;17.30;99.90;;;;;;6185590;23;20038;-79
2022/06/27 09:10:35;;;;;;;2.00;1.83;;;17.30;99.90;;;;;;6185015;23;20019;-80
2022/06/27 09:13:03;;;;;;;2.00;1.60;;;17.20;99.90;;;;;;6184104;23;20544;-81
2022/06/27 09:16:02;;;;;;;1.70;1.40;;;17.20;99.90;;;;;;6184060;23;20031;-81
2022/06/27 09:18:29;;;;;;;1.95;1.85;;;17.20;99.90;;;;;;6184445;23;20020;-81
2022/06/27 09:21:07;;;;;;;2.58;1.70;;;17.30;99.90;;;;;;6210102;23;20020;-80
2022/06/27 09:23:45;;;;;;;1.70;1.60;;;17.20;99.90;;;;;;6184451;23;20063;-80
2022/06/27 09:26:19;;;;;;;2.67;1.67;;;17.30;99.90;;;;;;6210235;23;20074;-80
2022/06/27 09:28:51;;;;;;;1.70;1.60;;;17.20;99.90;;;;;;6184128;23;20019;-80
2022/06/27 09:31:35;;;;;;;1.73;1.50;;;17.30;99.90;;;;;;6210138;23;20579;-82
2022/06/27 09:34:18;;;;;;;3.20;2.05;;;17.30;99.90;;;;;;6184026;23;20024;-81
2022/06/27 09:36:56;;;;;;;1.73;1.60;;;17.30;99.90;;;;;;6208878;23;20016;-82
2022/06/27 09:39:49;;;;;;;1.65;1.55;;;17.40;99.90;;;;;;6208973;23;20042;-82
2022/06/27 09:42:15;;;;;;;3.72;1.95;;;17.40;99.90;;;;;;6156473;23;20316;-80
2022/06/27 09:44:43;;;;;;;1.77;1.67;;;17.40;99.90;;;;;;6157472;23;20031;-79
2022/06/27 09:47:26;;;;;;;2.88;1.60;;;17.40;99.90;;;;;;6210042;23;20051;-79
2022/06/27 09:49:56;;;;;;;3.85;1.80;;;17.40;99.90;;;;;;6160083;23;20024;-78
2022/06/27 09:52:23;;;;;;;3.38;1.55;;;17.40;99.90;;;;;;6182707;23;20016;-79
2022/06/27 09:54:52;;;;;;;4.20;2.25;;;17.40;99.90;;;;;;6207440;23;20024;-78
2022/06/27 09:57:19;;;;;;;4.07;2.50;;;17.40;99.90;;;;;;6209913;23;20024;-79
2022/06/27 09:59:47;;;;;;;3.72;2.40;;;17.40;99.90;;;;;;6184110;23;20027;-78
2022/06/27 10:02:16;;;;;;;4.88;2.03;;;17.40;99.90;;;;;;6185144;23;20048;-78
2022/06/27 10:04:43;;;;;;;2.35;1.83;;;17.30;99.90;;;;;;6183618;23;20020;-78
2022/06/27 10:07:11;;;;;;;2.92;1.92;;;17.40;99.90;;;;;;6209873;23;20046;-77
2022/06/27 10:09:38;;;;;;;4.13;1.95;;;17.40;99.90;;;;;;6207311;23;20034;-78
2022/06/27 10:12:23;;;;;;;2.20;1.63;;;17.40;99.90;;;;;;6209541;23;20023;-78
2022/06/27 10:15:12;;;;;;;2.50;2.20;;;17.40;99.90;;;;;;6184472;23;20016;-77
2022/06/27 10:17:44;;;;;;;1.73;1.63;;;17.50;99.90;;;;;;6209108;23;20016;-78
2022/06/27 10:20:13;;;;;;;2.10;1.58;;;17.50;99.90;;;;;;6184631;23;20316;-77
2022/06/27 10:22:39;;;;;;;2.55;2.17;;;17.50;99.90;;;;;;6207336;23;20335;-76
2022/06/27 10:25:27;;;;;;;2.45;1.90;;;17.50;99.90;;;;;;6209635;23;20020;-77
2022/06/27 10:28:12;;;;;;;1.95;1.77;;;17.50;99.90;;;;;;6207413;23;20244;-76
2022/06/27 10:30:49;;;;;;;1.98;1.58;;;17.50;99.90;;;;;;6206979;23;20016;-77
2022/06/27 10:33:18;;;;;;;1.60;1.40;;;17.50;99.90;;;;;;6209235;23;20447;-76
2022/06/27 10:36:12;;;;;;;2.08;1.35;;;17.50;99.90;;;;;;6208516;23;20403;-76
2022/06/27 10:38:38;;;;;;;5.53;2.05;;;17.60;99.90;;;;;;6185868;23;20016;-76
2022/06/27 10:41:10;;;;;;;3.58;2.58;;;17.70;99.90;;;;;;6211626;23;20113;-76
2022/06/27 10:43:36;;;;;;;2.50;2.30;;;17.70;99.90;;;;;;6184884;23;20069;-75
2022/06/27 10:46:11;;;;;;;2.92;1.70;;;17.80;99.90;;;;;;6209316;23;20099;-76
2022/06/27 10:48:39;;;;;;;2.35;2.25;;;17.80;99.90;;;;;;6237348;23;20060;-76
2022/06/27 10:51:32;;;;;;;3.30;2.67;;;17.80;99.90;;;;;;6207982;23;20450;-76
2022/06/27 10:53:59;;;;;;;2.63;2.42;;;17.80;99.90;;;;;;6202870;23;20016;-76
2022/06/27 10:56:44;;;;;;;1.70;1.60;;;17.70;99.90;;;;;;6210403;23;20437;-76
2022/06/27 10:59:16;;;;;;;2.15;1.95;;;17.70;99.90;;;;;;6209923;23;20146;-76
2022/06/27 11:02:03;;;;;;;1.88;1.45;;;17.70;99.90;;;;;;6209376;23;20016;-76
2022/06/27 11:04:31;;;;;;;2.75;2.03;;;17.70;99.90;;;;;;6210434;23;20099;-76
2022/06/27 11:07:03;;;;;;;4.63;2.20;;;17.60;99.90;;;;;;6210138;23;20294;-76
2022/06/27 11:09:36;;;;;;;2.67;1.92;;;17.70;99.90;;;;;;6210398;23;20114;-76
2022/06/27 11:12:03;;;;;;;2.92;1.95;;;17.80;99.90;;;;;;6210106;23;20027;-76
2022/06/27 11:14:31;;;;;;;3.35;1.70;;;17.90;99.90;;;;;;6210672;23;20016;-76
2022/06/27 11:16:57;;;;;;;4.28;1.80;;;17.80;99.90;;;;;;6210062;23;20085;-76
2022/06/27 11:22:23;;;;;;;2.13;1.92;;;17.90;99.90;;;;;;6210728;23;20370;-76
2022/06/27 11:24:49;;;;;;;2.33;1.85;;;18.00;99.90;;;;;;6183197;23;20316;-76
2022/06/27 11:27:16;;;;;;;2.80;1.92;;;18.00;99.90;;;;;;6210265;23;20450;-76
2022/06/27 11:32:33;;;;;;;5.65;2.10;;;18.00;99.90;;;;;;6210648;23;20022;-77
2022/06/27 11:35:02;;;;;;;3.88;1.75;;;18.00;99.90;;;;;;6158732;23;20608;-78
2022/06/27 11:37:29;;;;;;;4.00;1.83;;;18.00;99.90;;;;;;6208501;23;20544;-78
2022/06/27 11:40:07;;;;;;;4.75;2.10;;;18.00;99.90;;;;;;6209765;23;20020;-78
2022/06/27 11:42:41;;;;;;;2.45;1.83;;;18.00;99.90;;;;;;6210733;23;20023;-77
2022/06/27 11:45:10;;;;;;;1.70;1.48;;;18.00;99.90;;;;;;6185706;23;20016;-77
2022/06/27 11:47:41;;;;;;;1.88;1.77;;;18.10;99.90;;;;;;6183966;23;20016;-77
2022/06/27 11:50:11;;;;;;;3.40;2.03;;;18.10;99.90;;;;;;6210624;23;20034;-77
2022/06/27 11:52:40;;;;;;;2.28;1.70;;;18.10;99.90;;;;;;6209110;23;20024;-77
2022/06/27 11:55:17;;;;;;;1.88;1.77;;;18.10;99.90;;;;;;6209620;23;20598;-77
2022/06/27 11:57:55;;;;;;;2.38;2.15;;;18.10;99.90;;;;;;6210284;23;20020;-77
2022/06/27 12:00:23;;;;;;;2.67;2.10;;;18.10;99.90;;;;;;6185574;23;20105;-77
2022/06/27 12:02:58;;;;;;;4.68;1.83;;;18.00;99.90;;;;;;6210409;23;20027;-77
2022/06/27 12:05:28;;;;;;;2.90;2.33;;;18.00;99.90;;;;;;6208361;23;20113;-77
2022/06/27 12:07:58;;;;;;;2.38;2.05;;;18.10;99.90;;;;;;6208030;23;20028;-77
2022/06/27 12:10:44;;;;;;;3.50;2.08;;;18.00;99.90;;;;;;6209672;23;20347;-77
2022/06/27 12:16:57;;;;;;;3.53;2.72;;;18.10;99.90;;;;;;6191027;22;20107;-66
2022/06/27 12:19:25;;;;;;;4.13;2.40;;;18.10;99.90;;;;;;6269359;22;20129;-67
2022/06/27 12:21:51;;;;;;;3.60;2.58;;;18.00;99.90;;;;;;6242627;22;20043;-67
2022/06/27 12:24:18;;;;;;;3.25;2.95;;;18.00;99.90;;;;;;6242016;22;20115;-66
2022/06/27 12:26:50;;;;;;;3.63;2.83;;;18.00;99.90;;;;;;6239953;22;20442;-68
2022/06/27 12:29:17;;;;;;;6.45;3.15;;;18.10;99.90;;;;;;6242911;22;20020;-68
2022/06/27 12:31:43;;;;;;;3.80;2.90;;;18.10;99.90;;;;;;6240258;22;20012;-68
2022/06/27 12:34:09;;;;;;;3.08;2.60;;;18.10;99.90;;;;;;6269475;22;20011;-68
2022/06/27 12:36:36;;;;;;;3.45;3.15;;;18.20;99.90;;;;;;6241167;22;20070;-68
2022/06/27 12:39:03;;;;;;;3.42;3.03;;;18.10;99.90;;;;;;6269501;22;20281;-68
2022/06/27 12:41:28;;;;;;;4.07;3.67;;;18.10;99.90;;;;;;6268502;22;20022;-69
2022/06/27 12:43:57;;;;;;;4.72;3.38;;;18.00;99.90;;;;;;6242554;22;20102;-68
2022/06/27 12:46:24;;;;;;;2.90;2.70;;;18.00;99.90;;;;;;6241098;22;20413;-68
2022/06/27 12:48:50;;;;;;;2.60;2.00;;;18.00;99.90;;;;;;6241856;22;20019;-69
2022/06/27 12:51:16;;;;;;;2.72;1.98;;;18.00;99.90;;;;;;6269983;22;20011;-68
2022/06/27 12:53:42;;;;;;;1.60;1.50;;;17.90;99.90;;;;;;6268872;22;20022;-68
2022/06/27 12:56:08;;;;;;;2.60;1.70;;;17.90;99.90;;;;;;6241952;22;20055;-68
2022/06/27 12:58:34;;;;;;;3.58;2.10;;;17.90;99.90;;;;;;6268224;22;20134;-69
2022/06/27 13:01:01;;;;;;;2.40;1.95;;;17.90;99.90;;;;;;6269129;22;20019;-68
2022/06/27 13:03:29;;;;;;;7.60;3.25;;;17.90;99.90;;;;;;6241335;22;20343;-68
2022/06/27 13:05:57;;;;;;;5.43;2.00;;;17.90;99.90;;;;;;6241861;22;20034;-69
2022/06/27 13:08:23;;;;;;;3.65;2.03;;;17.90;99.90;;;;;;6242044;22;20106;-68
2022/06/27 13:10:49;;;;;;;2.17;1.70;;;17.90;99.90;;;;;;6268445;22;20020;-68
2022/06/27 13:13:15;;;;;;;2.83;1.60;;;17.90;99.90;;;;;;6270326;22;20034;-68
2022/06/27 13:15:41;;;;;;;2.08;1.45;;;17.90;99.90;;;;;;6266177;22;20051;-69
2022/06/27 13:18:07;;;;;;;1.58;1.20;;;17.90;99.90;;;;;;6263525;22;20094;-68
2022/06/27 13:20:34;;;;;;;2.03;1.10;;;17.90;99.90;;;;;;6296188;22;20015;-69
2022/06/27 13:23:01;;;;;;;2.35;1.40;;;17.90;99.90;;;;;;6297004;22;20080;-68
2022/06/27 13:25:27;;;;;;;2.40;1.30;;;17.80;99.90;;;;;;6271222;22;20019;-68
2022/06/27 13:27:54;;;;;;;4.38;1.45;;;17.70;99.90;;;;;;6272047;22;20033;-68
2022/06/27 13:30:20;;;;;;;1.40;1.30;;;17.70;99.90;;;;;;6298593;22;20091;-68
2022/06/27 13:32:47;;;;;;;3.10;1.38;;;17.60;99.90;;;;;;6272030;22;20061;-68
2022/06/27 13:35:13;;;;;;;5.03;1.30;;;17.60;99.90;;;;;;6273054;22;20019;-66
2022/06/27 13:37:39;;;;;;;3.25;1.40;;;17.60;99.90;;;;;;6246514;22;20078;-68
2022/06/27 13:40:06;;;;;;;1.38;1.27;;;17.60;99.90;;;;;;6247741;22;20019;-68
2022/06/27 13:42:33;;;;;;;2.20;1.67;;;17.50;99.90;;;;;;6272863;22;20345;-68
2022/06/27 13:45:00;;;;;;;4.90;1.40;;;17.50;99.90;;;;;;6272793;22;20019;-67
2022/06/27 13:47:27;;;;;;;2.80;2.25;;;17.50;99.90;;;;;;6273491;22;20030;-67
2022/06/27 13:49:54;;;;;;;2.78;2.10;;;17.50;99.90;;;;;;6246442;22;20019;-68
2022/06/27 13:52:21;;;;;;;3.10;1.80;;;17.50;99.90;;;;;;6273506;22;20019;-68